Terminal Aerodrome Forecast
Issued by NWS

Home | Current Version | Previous Version | Text Only | Print | Product List | Glossary On
Versions: 1 2 3 4 5 6 7 8 9 10 11 12 13 14 15 16 17 18
089
FTUS43 KGRR 252340
TAFMKG
TAF
KMKG 252340Z 2600/2624 28006KT P6SM BKN050
     FM260800 33004KT 1SM BR BKN070
     FM261000 VRB03KT 3SM BR BKN003
     FM261300 08004KT 1SM BR OVC005
     FM261600 25005KT P6SM BKN035=

USA.gov is the U.S. government's official web portal to all federal, state and local government web resources and services.